Time;durP1;ratioP1;P1;durP2;ratioP2;P2;SDS_P1;SDS_P2;PMS_P1;PMS_P2;Temp;Humidity;BMP_temperature;BMP_pressure;BME280_temperature;BME280_humidity;BME280_pressure;Samples;Min_cycle;Max_cycle;Signal;HPM_P1;HPM_P2
2021/05/04 00:00:00;;;;;;;5.72;2.22;;;10.40;99.90;;;;;;5101141;28;20044;-65
2021/05/04 00:02:26;;;;;;;4.82;2.70;;;10.40;99.90;;;;;;5097937;28;20027;-65
2021/05/04 00:04:51;;;;;;;3.65;1.98;;;10.30;99.90;;;;;;5099857;28;20036;-63
2021/05/04 00:07:18;;;;;;;4.68;2.10;;;10.30;99.90;;;;;;5098366;28;20027;-63
2021/05/04 00:09:43;;;;;;;8.82;2.65;;;10.20;99.90;;;;;;5096146;28;20028;-65
2021/05/04 00:12:09;;;;;;;8.40;2.72;;;10.10;99.90;;;;;;5098649;28;20039;-65
2021/05/04 00:14:35;;;;;;;5.32;1.80;;;10.00;99.90;;;;;;5102405;28;20042;-65
2021/05/04 00:17:03;;;;;;;7.18;2.58;;;9.90;99.90;;;;;;5103970;28;20040;-65
2021/05/04 00:19:28;;;;;;;5.53;2.50;;;9.70;99.90;;;;;;5102677;28;20576;-65
2021/05/04 00:21:54;;;;;;;5.82;2.53;;;9.70;99.90;;;;;;5099777;28;20036;-65
2021/05/04 00:24:19;;;;;;;4.72;2.08;;;9.60;99.90;;;;;;5101185;28;20393;-65
2021/05/04 00:26:45;;;;;;;7.65;2.50;;;9.50;99.90;;;;;;5100570;27;20032;-64
2021/05/04 00:29:10;;;;;;;5.78;2.03;;;9.40;99.90;;;;;;5103716;28;20119;-64
2021/05/04 00:31:37;;;;;;;7.82;2.10;;;9.40;99.90;;;;;;5096734;28;20075;-65
2021/05/04 00:34:03;;;;;;;7.57;2.53;;;9.30;99.90;;;;;;5099528;28;20132;-63
2021/05/04 00:36:28;;;;;;;5.93;2.50;;;9.30;99.90;;;;;;5101268;27;20472;-65
2021/05/04 00:38:54;;;;;;;8.73;2.55;;;9.30;99.90;;;;;;5100025;28;20036;-63
2021/05/04 00:41:20;;;;;;;7.05;2.60;;;9.20;99.90;;;;;;5102407;28;20032;-66
2021/05/04 00:43:45;;;;;;;3.72;2.05;;;9.20;99.90;;;;;;5101290;28;20039;-64
2021/05/04 00:46:11;;;;;;;6.68;3.05;;;9.10;99.90;;;;;;5105443;28;20036;-65
2021/05/04 00:48:37;;;;;;;6.47;2.47;;;9.10;99.90;;;;;;5105747;28;20460;-65
2021/05/04 00:51:03;;;;;;;4.68;2.72;;;9.10;99.90;;;;;;5102095;27;20036;-65
2021/05/04 00:53:30;;;;;;;7.93;2.72;;;9.10;99.90;;;;;;5108837;28;20031;-65
2021/05/04 00:56:00;;;;;;;5.72;2.55;;;9.10;99.90;;;;;;5105444;28;20909;-64
2021/05/04 00:58:26;;;;;;;6.80;2.53;;;9.00;99.90;;;;;;5110660;28;20038;-65
2021/05/04 01:00:52;;;;;;;7.90;2.67;;;9.00;99.90;;;;;;5109849;28;20771;-65
2021/05/04 01:03:17;;;;;;;6.70;3.05;;;9.00;99.90;;;;;;5107472;28;20035;-64
2021/05/04 01:05:43;;;;;;;6.43;3.03;;;9.00;99.90;;;;;;5109814;28;20032;-64
2021/05/04 01:08:09;;;;;;;8.15;2.90;;;9.00;99.90;;;;;;5110300;28;20039;-63
2021/05/04 01:10:34;;;;;;;6.22;3.10;;;9.00;99.90;;;;;;5110634;28;20032;-65
2021/05/04 01:13:00;;;;;;;4.28;2.70;;;9.00;99.90;;;;;;5110549;28;20036;-65
2021/05/04 01:15:26;;;;;;;7.60;3.22;;;8.90;99.90;;;;;;5109900;28;20032;-64
2021/05/04 01:17:53;;;;;;;6.47;2.65;;;8.90;99.90;;;;;;5112041;28;20020;-63
2021/05/04 01:20:19;;;;;;;10.20;3.45;;;8.90;99.90;;;;;;5109696;28;20027;-64
2021/05/04 01:22:44;;;;;;;4.30;2.65;;;8.80;99.90;;;;;;5112057;28;20401;-65
2021/05/04 01:25:10;;;;;;;5.22;2.92;;;8.80;99.90;;;;;;5111482;28;20120;-64
2021/05/04 01:27:36;;;;;;;4.93;2.78;;;8.80;99.90;;;;;;5118371;27;20024;-63
2021/05/04 01:30:02;;;;;;;11.65;2.88;;;8.80;99.90;;;;;;5108333;27;20091;-64
2021/05/04 01:32:28;;;;;;;8.60;3.15;;;8.80;99.90;;;;;;5111240;28;20027;-65
2021/05/04 01:34:54;;;;;;;6.88;3.17;;;8.70;99.90;;;;;;5108320;28;20035;-61
2021/05/04 01:37:19;;;;;;;4.97;3.10;;;8.80;99.90;;;;;;5113274;28;20036;-64
2021/05/04 01:39:48;;;;;;;8.05;2.88;;;8.80;99.90;;;;;;5117815;28;20024;-65
2021/05/04 01:42:15;;;;;;;4.07;2.53;;;8.80;99.90;;;;;;5107848;28;20436;-64
2021/05/04 01:44:42;;;;;;;4.47;2.90;;;8.80;99.90;;;;;;5109811;28;20021;-66
2021/05/04 01:47:08;;;;;;;6.50;2.25;;;8.80;99.90;;;;;;5089400;28;20719;-62
2021/05/04 01:49:34;;;;;;;9.88;2.35;;;8.80;99.90;;;;;;5106420;28;20481;-64
2021/05/04 01:52:01;;;;;;;5.03;2.15;;;8.80;99.90;;;;;;5107524;28;20035;-63
2021/05/04 01:54:27;;;;;;;6.85;2.50;;;8.80;99.90;;;;;;5105363;28;20089;-65
2021/05/04 01:56:55;;;;;;;4.15;1.95;;;8.80;99.90;;;;;;5106768;27;20504;-62
2021/05/04 01:59:22;;;;;;;4.72;2.20;;;8.90;99.90;;;;;;5104474;28;20168;-63
2021/05/04 02:01:47;;;;;;;4.80;2.53;;;8.90;99.90;;;;;;5110614;27;20419;-63
2021/05/04 02:04:13;;;;;;;4.63;2.22;;;8.90;99.90;;;;;;5117546;27;20038;-64
2021/05/04 02:06:39;;;;;;;5.07;2.60;;;8.90;99.90;;;;;;5110337;27;20245;-64
2021/05/04 02:09:06;;;;;;;5.68;2.40;;;8.90;99.90;;;;;;5106368;27;20108;-66
2021/05/04 02:11:32;;;;;;;5.13;2.75;;;8.90;99.90;;;;;;5112990;27;20419;-62
2021/05/04 02:13:57;;;;;;;3.35;2.08;;;8.90;99.90;;;;;;5108959;28;20035;-62
2021/05/04 02:16:23;;;;;;;8.70;2.35;;;8.90;99.90;;;;;;5109295;27;20047;-65
2021/05/04 02:18:49;;;;;;;4.15;2.20;;;8.90;99.90;;;;;;5123529;27;20077;-64
2021/05/04 02:21:16;;;;;;;8.02;2.10;;;8.80;99.90;;;;;;5109169;27;20055;-65
2021/05/04 02:23:43;;;;;;;2.78;1.65;;;8.80;99.90;;;;;;5112684;27;20023;-63
2021/05/04 02:26:11;;;;;;;4.32;1.70;;;8.80;99.90;;;;;;5110454;27;20039;-64
2021/05/04 02:28:36;;;;;;;3.47;1.83;;;8.80;99.90;;;;;;5107506;28;20031;-65
2021/05/04 02:31:02;;;;;;;3.78;1.90;;;8.70;99.90;;;;;;5109821;28;20038;-65
2021/05/04 02:33:29;;;;;;;9.77;1.67;;;8.70;99.90;;;;;;5107416;27;20024;-66
2021/05/04 02:35:57;;;;;;;9.13;2.10;;;8.70;99.90;;;;;;5111014;27;20080;-63
2021/05/04 02:38:24;;;;;;;5.40;1.98;;;8.70;99.90;;;;;;5114550;27;20023;-66
2021/05/04 02:40:50;;;;;;;4.80;1.92;;;8.70;99.90;;;;;;5108602;28;20034;-63
2021/05/04 02:43:16;;;;;;;3.15;1.70;;;8.70;99.90;;;;;;5105334;28;20040;-65
2021/05/04 02:45:41;;;;;;;7.18;2.20;;;8.60;99.90;;;;;;5107307;28;20056;-63
2021/05/04 02:48:07;;;;;;;2.78;1.70;;;8.60;99.90;;;;;;5106974;28;20034;-65
2021/05/04 02:50:33;;;;;;;2.65;1.55;;;8.60;99.90;;;;;;5106410;28;20032;-64
2021/05/04 02:52:58;;;;;;;5.57;2.30;;;8.60;99.90;;;;;;5111102;27;20097;-64
2021/05/04 02:55:25;;;;;;;3.35;1.73;;;8.60;99.90;;;;;;5105101;28;20162;-64
2021/05/04 02:57:50;;;;;;;3.28;1.63;;;8.60;99.90;;;;;;5107229;28;20095;-64
2021/05/04 03:00:17;;;;;;;2.45;1.60;;;8.60;99.90;;;;;;5115563;28;20500;-65
2021/05/04 03:02:43;;;;;;;4.28;1.45;;;8.60;99.90;;;;;;5116696;27;20118;-63
2021/05/04 03:05:09;;;;;;;2.05;1.50;;;8.60;99.90;;;;;;5112835;28;20067;-63
2021/05/04 03:07:34;;;;;;;4.57;1.98;;;8.60;99.90;;;;;;5109032;28;20036;-61
2021/05/04 03:10:00;;;;;;;4.03;1.60;;;8.60;99.90;;;;;;5111205;28;20036;-64
2021/05/04 03:12:25;;;;;;;3.20;1.75;;;8.60;99.90;;;;;;5111002;28;20058;-63
2021/05/04 03:14:51;;;;;;;5.28;1.63;;;8.70;99.90;;;;;;5109994;28;20038;-63
2021/05/04 03:17:16;;;;;;;6.38;2.53;;;8.60;99.90;;;;;;5111317;28;20028;-63
2021/05/04 03:19:42;;;;;;;4.20;1.90;;;8.60;99.90;;;;;;5107243;28;20036;-65
2021/05/04 03:22:08;;;;;;;3.80;1.73;;;8.60;99.90;;;;;;5108687;28;20545;-62
2021/05/04 03:24:33;;;;;;;4.78;1.98;;;8.60;99.90;;;;;;5107924;28;20035;-64
2021/05/04 03:26:59;;;;;;;2.42;1.50;;;8.60;99.90;;;;;;5108434;28;20052;-65
2021/05/04 03:29:24;;;;;;;5.50;1.33;;;8.70;99.90;;;;;;5112905;28;20100;-66
2021/05/04 03:31:51;;;;;;;7.05;1.90;;;8.70;99.90;;;;;;5108868;28;20059;-65
2021/05/04 03:34:17;;;;;;;2.58;1.58;;;8.70;99.90;;;;;;5117215;28;20311;-66
2021/05/04 03:36:42;;;;;;;5.97;1.73;;;8.70;99.90;;;;;;5116306;27;20050;-66
2021/05/04 03:39:08;;;;;;;7.10;1.50;;;8.70;99.90;;;;;;5107409;28;20061;-65
2021/05/04 03:41:33;;;;;;;6.28;1.75;;;8.60;99.90;;;;;;5107062;28;21248;-65
2021/05/04 03:43:59;;;;;;;2.55;1.33;;;8.60;99.90;;;;;;5107939;28;20542;-65
2021/05/04 03:46:26;;;;;;;3.80;1.55;;;8.70;99.90;;;;;;5105145;28;20043;-61
2021/05/04 03:48:52;;;;;;;1.67;1.10;;;8.60;99.90;;;;;;5108224;28;20031;-65
2021/05/04 03:51:17;;;;;;;6.90;2.75;;;8.70;99.90;;;;;;5104691;28;20042;-63
2021/05/04 03:53:43;;;;;;;4.90;1.10;;;8.60;99.90;;;;;;5108793;28;20031;-66
2021/05/04 03:56:09;;;;;;;3.60;1.05;;;8.70;99.90;;;;;;5106937;28;20032;-63
2021/05/04 03:58:34;;;;;;;2.80;1.58;;;8.80;99.90;;;;;;5106108;28;20035;-66
2021/05/04 04:01:00;;;;;;;2.47;1.30;;;8.80;99.90;;;;;;5109040;28;20118;-65
2021/05/04 04:03:26;;;;;;;5.43;1.63;;;8.80;99.90;;;;;;5106577;28;20040;-63
2021/05/04 04:05:53;;;;;;;2.95;1.27;;;8.80;99.90;;;;;;5108089;28;20402;-66
2021/05/04 04:08:19;;;;;;;6.13;1.58;;;8.80;99.90;;;;;;5107756;28;20032;-65
2021/05/04 04:10:45;;;;;;;6.10;1.40;;;8.80;99.90;;;;;;5110114;28;20039;-66
2021/05/04 04:13:11;;;;;;;6.80;1.48;;;8.80;99.90;;;;;;5110010;28;20046;-64
2021/05/04 04:15:36;;;;;;;3.42;1.38;;;8.90;99.90;;;;;;5106445;27;20520;-64
2021/05/04 04:18:02;;;;;;;4.60;1.23;;;8.90;99.90;;;;;;5098997;27;20059;-64
2021/05/04 04:20:27;;;;;;;3.85;1.20;;;8.80;99.90;;;;;;5102870;28;20024;-64
2021/05/04 04:22:53;;;;;;;7.70;2.75;;;8.80;99.90;;;;;;5098676;28;20069;-65
2021/05/04 04:25:18;;;;;;;4.43;1.33;;;8.80;99.90;;;;;;5101909;28;20046;-64
2021/05/04 04:27:44;;;;;;;5.05;1.70;;;8.80;99.90;;;;;;5105158;27;20112;-65
2021/05/04 04:30:10;;;;;;;3.85;1.25;;;8.80;99.90;;;;;;5100891;28;20055;-64
2021/05/04 04:32:36;;;;;;;3.20;1.27;;;8.80;99.90;;;;;;5099359;28;20035;-64
2021/05/04 04:35:01;;;;;;;3.95;1.17;;;8.80;99.90;;;;;;5099296;28;20024;-64
2021/05/04 04:37:27;;;;;;;2.58;1.50;;;8.80;99.90;;;;;;5103956;27;20040;-64
2021/05/04 04:39:52;;;;;;;1.92;1.05;;;8.90;99.90;;;;;;5100140;27;20032;-65
2021/05/04 04:42:18;;;;;;;2.60;1.15;;;8.80;99.90;;;;;;5098233;27;20057;-65
2021/05/04 04:44:43;;;;;;;4.95;1.40;;;8.80;99.90;;;;;;5101401;28;20485;-65
2021/05/04 04:47:11;;;;;;;4.13;1.48;;;8.80;99.90;;;;;;5097495;28;20035;-65
2021/05/04 04:49:36;;;;;;;3.33;1.30;;;8.70;99.90;;;;;;5100501;27;20370;-65
2021/05/04 04:52:02;;;;;;;4.93;1.42;;;8.70;99.90;;;;;;5099536;28;20040;-65
2021/05/04 04:54:28;;;;;;;5.05;1.65;;;8.80;99.90;;;;;;5099919;27;20374;-65
2021/05/04 04:56:53;;;;;;;7.68;2.45;;;8.80;99.90;;;;;;5100485;28;20031;-65
2021/05/04 04:59:19;;;;;;;5.10;1.23;;;8.80;99.90;;;;;;5097515;28;20060;-65
2021/05/04 05:01:45;;;;;;;7.15;2.30;;;8.80;99.90;;;;;;5103162;27;20047;-65
2021/05/04 05:04:10;;;;;;;10.50;1.52;;;8.80;99.90;;;;;;5100725;28;20523;-65
2021/05/04 05:06:36;;;;;;;10.43;2.63;;;8.90;99.90;;;;;;5098650;28;20038;-65
2021/05/04 05:09:06;;;;;;;11.23;1.70;;;8.90;99.90;;;;;;5098875;27;20039;-65
2021/05/04 05:11:32;;;;;;;10.27;1.98;;;8.90;99.90;;;;;;5100731;27;20030;-65
2021/05/04 05:13:57;;;;;;;8.55;1.73;;;8.90;99.90;;;;;;5099655;28;20040;-66
2021/05/04 05:16:23;;;;;;;10.65;1.77;;;9.00;99.90;;;;;;5099645;28;20065;-66
2021/05/04 05:18:48;;;;;;;9.90;1.65;;;9.00;99.90;;;;;;5096528;28;20100;-65
2021/05/04 05:21:15;;;;;;;12.75;1.52;;;9.10;99.90;;;;;;5100198;28;20483;-65
2021/05/04 05:23:42;;;;;;;7.05;1.55;;;9.10;99.90;;;;;;5096373;28;20036;-66
2021/05/04 05:26:08;;;;;;;12.25;2.03;;;9.20;99.90;;;;;;5106241;27;20191;-65
2021/05/04 05:28:34;;;;;;;11.65;1.90;;;9.30;99.90;;;;;;5098008;27;20129;-66
2021/05/04 05:30:59;;;;;;;10.60;1.50;;;9.30;99.90;;;;;;5098524;28;20040;-65
2021/05/04 05:33:25;;;;;;;6.28;1.30;;;9.50;99.90;;;;;;5099111;28;20024;-65
2021/05/04 05:35:51;;;;;;;9.48;1.42;;;9.60;99.90;;;;;;5095183;27;20031;-66
2021/05/04 05:38:17;;;;;;;3.78;1.08;;;9.70;99.90;;;;;;5100285;28;20093;-65
2021/05/04 05:40:42;;;;;;;11.70;1.02;;;9.90;99.90;;;;;;5096325;28;20058;-65
2021/05/04 05:43:08;;;;;;;6.28;1.00;;;10.10;99.90;;;;;;5097064;28;20039;-66
2021/05/04 05:45:33;;;;;;;9.75;1.27;;;10.30;99.90;;;;;;5099416;28;20024;-65
2021/05/04 05:47:59;;;;;;;6.70;1.55;;;10.40;99.90;;;;;;5097251;28;20044;-65
2021/05/04 05:50:25;;;;;;;5.97;1.00;;;10.50;99.90;;;;;;5097561;28;20469;-66
2021/05/04 05:52:51;;;;;;;4.13;1.52;;;10.50;99.90;;;;;;5091165;28;20234;-66
2021/05/04 05:55:16;;;;;;;5.18;0.98;;;10.40;99.90;;;;;;5090432;28;20402;-66
2021/05/04 05:57:42;;;;;;;6.28;1.23;;;10.40;99.90;;;;;;5091937;28;20028;-65
2021/05/04 06:00:10;;;;;;;4.40;0.80;;;10.30;99.90;;;;;;5090068;28;20040;-65
2021/05/04 06:02:35;;;;;;;3.20;0.95;;;10.10;99.90;;;;;;5099631;28;20020;-65
2021/05/04 06:05:01;;;;;;;3.55;0.43;;;10.10;99.90;;;;;;5090551;28;20501;-65
2021/05/04 06:07:27;;;;;;;6.13;1.23;;;10.00;99.90;;;;;;5097165;28;20036;-65
2021/05/04 06:09:52;;;;;;;4.85;1.08;;;9.90;99.90;;;;;;5098205;27;20036;-66
2021/05/04 06:12:18;;;;;;;13.02;1.85;;;10.00;99.90;;;;;;5105974;27;20500;-65
2021/05/04 06:14:43;;;;;;;7.95;0.93;;;10.10;99.90;;;;;;5096360;27;20063;-65
2021/05/04 06:17:10;;;;;;;11.90;1.60;;;10.40;99.90;;;;;;5098456;28;20493;-65
2021/05/04 06:19:35;;;;;;;8.57;1.77;;;10.80;99.90;;;;;;5101725;27;20119;-66
2021/05/04 06:22:01;;;;;;;5.50;1.30;;;11.20;99.90;;;;;;5091689;28;20123;-65
2021/05/04 06:24:26;;;;;;;10.75;1.80;;;11.10;99.90;;;;;;5091168;28;20039;-65
2021/05/04 06:26:52;;;;;;;12.88;2.20;;;10.90;99.90;;;;;;5102490;27;20019;-66
2021/05/04 06:29:17;;;;;;;12.15;1.30;;;10.60;99.90;;;;;;5089350;28;20029;-66
2021/05/04 06:31:44;;;;;;;12.10;2.10;;;10.50;99.90;;;;;;5100223;28;20560;-66
2021/05/04 06:34:11;;;;;;;7.22;2.97;;;10.40;99.90;;;;;;5105746;27;20031;-65
2021/05/04 06:36:37;;;;;;;7.32;2.20;;;10.40;99.90;;;;;;5106364;27;20919;-66
2021/05/04 06:39:03;;;;;;;10.95;1.92;;;10.30;99.90;;;;;;5103577;27;20040;-66
2021/05/04 06:41:35;;;;;;;14.85;2.05;;;10.20;99.90;;;;;;5103379;28;20592;-66
2021/05/04 06:44:02;;;;;;;14.10;1.90;;;10.20;99.90;;;;;;5106211;27;20039;-66
2021/05/04 06:46:29;;;;;;;17.85;2.53;;;10.20;99.90;;;;;;5105057;28;20745;-66
2021/05/04 06:48:55;;;;;;;15.32;3.25;;;10.30;99.90;;;;;;5104640;28;20058;-66
2021/05/04 06:51:21;;;;;;;16.83;2.28;;;10.40;99.90;;;;;;5105843;28;20040;-66
2021/05/04 06:53:46;;;;;;;15.45;2.75;;;10.40;99.90;;;;;;5104716;28;20038;-66
2021/05/04 06:56:12;;;;;;;19.05;2.33;;;10.40;99.90;;;;;;5105269;28;20028;-66
2021/05/04 06:58:38;;;;;;;16.75;2.53;;;10.30;99.90;;;;;;5102096;28;20120;-66
2021/05/04 07:01:03;;;;;;;16.10;2.72;;;10.30;99.90;;;;;;5104778;28;20031;-66
2021/05/04 07:03:29;;;;;;;14.30;2.30;;;10.40;99.90;;;;;;5104935;28;20031;-65
2021/05/04 07:05:54;;;;;;;14.75;2.28;;;10.30;99.90;;;;;;5104166;28;20059;-65
2021/05/04 07:08:20;;;;;;;29.90;4.20;;;10.30;99.90;;;;;;5105137;28;20106;-66
2021/05/04 07:10:45;;;;;;;17.17;1.98;;;10.30;99.90;;;;;;5104428;28;20759;-65
2021/05/04 07:13:16;;;;;;;19.80;4.18;;;10.40;99.90;;;;;;5102253;28;20378;-65
2021/05/04 07:15:41;;;;;;;18.20;2.70;;;10.40;99.90;;;;;;5098766;28;20119;-65
2021/05/04 07:18:09;;;;;;;23.60;3.25;;;10.30;99.90;;;;;;5105492;28;20143;-65
2021/05/04 07:20:36;;;;;;;18.08;3.05;;;10.30;99.90;;;;;;5108057;27;20683;-65
2021/05/04 07:23:04;;;;;;;14.57;3.38;;;10.30;99.90;;;;;;5106118;27;20426;-65
2021/05/04 07:25:30;;;;;;;15.63;2.58;;;10.40;99.90;;;;;;5105666;28;21558;-65
2021/05/04 07:27:55;;;;;;;22.02;2.85;;;10.40;99.90;;;;;;5104278;28;20028;-65
2021/05/04 07:30:21;;;;;;;24.52;2.38;;;10.50;99.90;;;;;;5104612;28;20135;-65
2021/05/04 07:32:47;;;;;;;20.52;2.75;;;10.60;99.90;;;;;;5104792;28;20048;-65
2021/05/04 07:35:13;;;;;;;17.08;2.05;;;10.70;99.90;;;;;;5103840;28;20020;-65
2021/05/04 07:37:41;;;;;;;16.13;2.85;;;10.70;99.90;;;;;;5105851;28;20071;-65
2021/05/04 07:40:07;;;;;;;16.70;2.70;;;10.60;99.90;;;;;;5104596;28;20028;-65
2021/05/04 07:42:33;;;;;;;16.65;2.78;;;10.50;99.90;;;;;;5108152;28;20036;-65
2021/05/04 07:44:58;;;;;;;29.15;2.65;;;10.50;99.90;;;;;;5105895;28;20167;-66
2021/05/04 07:47:24;;;;;;;23.58;4.18;;;10.60;99.90;;;;;;5107323;28;20024;-65
2021/05/04 07:49:49;;;;;;;12.55;2.28;;;10.70;99.90;;;;;;5109491;28;20032;-65
2021/05/04 07:52:15;;;;;;;13.85;2.50;;;10.70;99.90;;;;;;5108681;28;20035;-65
2021/05/04 07:54:41;;;;;;;15.63;3.08;;;10.70;99.90;;;;;;5110878;27;20027;-66
2021/05/04 07:57:07;;;;;;;13.73;3.58;;;10.70;99.90;;;;;;5109947;28;20159;-66
2021/05/04 07:59:33;;;;;;;14.20;1.83;;;10.60;99.90;;;;;;5107610;27;20035;-66
2021/05/04 08:01:59;;;;;;;13.25;2.53;;;10.50;99.90;;;;;;5107508;27;20458;-65
2021/05/04 08:04:25;;;;;;;13.75;2.78;;;10.50;99.90;;;;;;5106772;27;20039;-65
2021/05/04 08:06:51;;;;;;;20.15;2.28;;;10.40;99.90;;;;;;5107711;27;20028;-65
2021/05/04 08:09:16;;;;;;;17.00;2.42;;;10.30;99.90;;;;;;5101921;27;20400;-65
2021/05/04 08:11:42;;;;;;;15.65;2.40;;;10.30;99.90;;;;;;5097027;28;20038;-65
2021/05/04 08:14:08;;;;;;;9.20;1.98;;;10.30;99.90;;;;;;5103421;27;20114;-66
2021/05/04 08:16:34;;;;;;;9.85;2.30;;;10.30;99.90;;;;;;5104281;27;20024;-66
2021/05/04 08:19:00;;;;;;;11.07;1.88;;;10.40;99.90;;;;;;5107847;27;20085;-65
2021/05/04 08:21:32;;;;;;;16.73;2.53;;;10.50;99.90;;;;;;5106311;27;20043;-66
2021/05/04 08:23:57;;;;;;;15.43;2.75;;;10.40;99.90;;;;;;5099583;27;20040;-65
2021/05/04 08:26:24;;;;;;;18.38;2.53;;;10.40;99.90;;;;;;5100025;27;20043;-65
2021/05/04 08:28:50;;;;;;;14.13;2.42;;;10.40;99.90;;;;;;5101809;27;20101;-65
2021/05/04 08:31:15;;;;;;;16.27;2.70;;;10.40;99.90;;;;;;5100041;28;20043;-65
2021/05/04 08:33:41;;;;;;;15.30;1.67;;;10.40;99.90;;;;;;5098040;28;20039;-65
2021/05/04 08:36:06;;;;;;;10.68;2.83;;;10.60;99.90;;;;;;5106550;27;20032;-65
2021/05/04 08:38:32;;;;;;;10.70;1.67;;;10.60;99.90;;;;;;5100060;28;20633;-65
2021/05/04 08:40:59;;;;;;;14.05;1.92;;;10.70;99.90;;;;;;5097574;28;20363;-65
2021/05/04 08:43:32;;;;;;;13.40;1.55;;;10.60;99.90;;;;;;5099893;28;20089;-66
2021/05/04 08:45:58;;;;;;;16.08;1.33;;;10.40;99.90;;;;;;5097355;28;20044;-65
2021/05/04 08:48:25;;;;;;;11.18;2.22;;;10.10;99.90;;;;;;5095667;28;20139;-66
2021/05/04 08:50:53;;;;;;;12.10;2.10;;;9.90;99.90;;;;;;5091828;27;20067;-66
2021/05/04 08:53:19;;;;;;;7.97;0.90;;;9.90;99.90;;;;;;5104157;27;20024;-66
2021/05/04 08:55:44;;;;;;;12.90;1.05;;;10.20;99.90;;;;;;5098925;28;20392;-66
2021/05/04 08:58:10;;;;;;;7.70;1.52;;;10.60;99.90;;;;;;5096076;28;20543;-65
2021/05/04 09:00:35;;;;;;;17.58;2.00;;;11.00;99.90;;;;;;5100253;28;20036;-66
2021/05/04 09:03:18;;;;;;;19.00;2.63;;;11.40;99.90;;;;;;5096438;28;20498;-66
2021/05/04 09:06:13;;;;;;;7.22;1.10;;;11.50;99.90;;;;;;5097806;27;20032;-66
2021/05/04 09:11:16;;;;;;;11.55;1.65;;;11.20;99.90;;;;;;5097866;28;20043;-65
2021/05/04 09:13:56;;;;;;;7.95;1.52;;;11.40;99.90;;;;;;5098918;28;20071;-65
2021/05/04 09:16:30;;;;;;;9.45;1.60;;;11.80;99.90;;;;;;5097731;28;20032;-65
2021/05/04 09:19:19;;;;;;;13.63;1.35;;;11.80;99.90;;;;;;5098800;28;20032;-66
2021/05/04 09:21:45;;;;;;;11.80;2.17;;;11.30;99.90;;;;;;5100501;28;20084;-66
2021/05/04 09:24:25;;;;;;;8.73;0.98;;;10.90;99.90;;;;;;5097678;28;20036;-65
2021/05/04 09:27:01;;;;;;;14.23;1.40;;;10.60;99.90;;;;;;5099366;27;20422;-66
2021/05/04 09:29:31;;;;;;;11.18;1.90;;;10.40;99.90;;;;;;5099492;28;20046;-66
2021/05/04 09:32:09;;;;;;;14.60;1.85;;;10.30;99.90;;;;;;5096431;28;20047;-65
2021/05/04 09:34:47;;;;;;;16.50;2.95;;;10.20;99.90;;;;;;5096333;28;20032;-66
2021/05/04 09:37:41;;;;;;;10.75;1.30;;;10.20;99.90;;;;;;5100575;27;20122;-65
2021/05/04 09:40:20;;;;;;;5.70;0.77;;;10.30;99.90;;;;;;5095274;28;20434;-65
2021/05/04 09:42:46;;;;;;;6.35;1.13;;;10.10;99.90;;;;;;5099421;28;20123;-66
2021/05/04 09:45:23;;;;;;;9.68;1.35;;;9.90;99.90;;;;;;5098661;27;20051;-66
2021/05/04 09:48:15;;;;;;;3.80;0.85;;;9.90;99.90;;;;;;5097426;27;20032;-65
2021/05/04 09:50:58;;;;;;;4.03;0.77;;;10.10;99.90;;;;;;5097391;28;20130;-66
2021/05/04 09:53:49;;;;;;;10.02;0.82;;;10.20;99.90;;;;;;5096455;28;20523;-65
2021/05/04 09:56:36;;;;;;;11.95;1.00;;;10.50;99.90;;;;;;5100013;28;20741;-65
2021/05/04 09:59:03;;;;;;;5.45;0.63;;;11.00;99.90;;;;;;5087797;28;20050;-66
2021/05/04 10:01:29;;;;;;;6.60;1.48;;;11.10;99.90;;;;;;5089236;28;20051;-65
2021/05/04 10:03:55;;;;;;;4.55;0.80;;;11.10;99.90;;;;;;5092800;28;20562;-66
2021/05/04 10:06:22;;;;;;;3.80;0.65;;;11.10;99.90;;;;;;5097036;28;20035;-66
2021/05/04 10:08:49;;;;;;;12.10;0.73;;;11.00;99.90;;;;;;5099817;28;20019;-66
2021/05/04 10:11:21;;;;;;;3.15;1.05;;;10.80;99.90;;;;;;5096430;28;20162;-66
2021/05/04 10:13:52;;;;;;;4.68;0.57;;;10.80;99.90;;;;;;5088955;28;20024;-66
2021/05/04 10:16:23;;;;;;;2.75;0.65;;;10.90;99.90;;;;;;5097329;28;20074;-66
2021/05/04 10:18:50;;;;;;;3.45;0.55;;;10.90;99.90;;;;;;5097792;28;20028;-66
2021/05/04 10:21:18;;;;;;;2.03;0.68;;;11.00;99.90;;;;;;5098886;28;20038;-66
2021/05/04 10:23:46;;;;;;;4.25;0.47;;;11.00;99.90;;;;;;5096811;28;20031;-66
2021/05/04 10:26:17;;;;;;;7.53;1.33;;;10.90;99.90;;;;;;5098811;27;20134;-66
2021/05/04 10:28:44;;;;;;;2.97;0.60;;;10.80;99.90;;;;;;5096690;28;20032;-66
2021/05/04 10:31:12;;;;;;;6.25;0.43;;;10.70;99.90;;;;;;5096190;28;20032;-66
2021/05/04 10:33:43;;;;;;;7.43;0.63;;;10.60;99.90;;;;;;5097073;28;20116;-65
2021/05/04 10:36:31;;;;;;;5.10;0.55;;;10.50;99.90;;;;;;5097638;28;20043;-65
2021/05/04 10:38:57;;;;;;;3.30;0.50;;;10.70;99.90;;;;;;5096654;28;20070;-66
2021/05/04 10:41:23;;;;;;;4.68;0.50;;;10.80;99.90;;;;;;5097322;28;20051;-66
2021/05/04 10:44:03;;;;;;;10.80;1.00;;;10.80;99.90;;;;;;5097330;28;20035;-66
2021/05/04 10:46:33;;;;;;;12.63;2.50;;;10.80;99.90;;;;;;5095471;28;20080;-65
2021/05/04 10:48:59;;;;;;;9.60;0.50;;;10.80;99.90;;;;;;5097323;28;20042;-65
2021/05/04 10:51:47;;;;;;;5.05;0.65;;;10.70;99.90;;;;;;5095473;28;20036;-65
2021/05/04 10:54:15;;;;;;;7.13;0.63;;;11.00;99.90;;;;;;5088981;28;20369;-65
2021/05/04 10:57:01;;;;;;;5.65;0.60;;;11.20;99.90;;;;;;5097170;28;20032;-65
2021/05/04 10:59:27;;;;;;;2.30;0.52;;;11.40;99.90;;;;;;5094283;28;20620;-65
2021/05/04 11:02:26;;;;;;;5.47;0.55;;;11.60;99.90;;;;;;5098181;28;20507;-66
2021/05/04 11:04:53;;;;;;;4.63;0.57;;;11.60;99.90;;;;;;5097754;28;20042;-66
2021/05/04 11:07:58;;;;;;;4.57;0.75;;;11.60;99.90;;;;;;5095409;28;20036;-65
2021/05/04 11:10:27;;;;;;;5.60;0.57;;;11.70;99.90;;;;;;5105292;28;20031;-65
2021/05/04 11:12:53;;;;;;;3.03;0.50;;;11.70;99.90;;;;;;5098370;28;20461;-65
2021/05/04 11:15:27;;;;;;;4.10;0.70;;;11.70;99.90;;;;;;5095001;28;20028;-65
2021/05/04 11:17:53;;;;;;;3.17;0.70;;;11.60;99.90;;;;;;5099483;28;20035;-65
2021/05/04 11:20:38;;;;;;;4.55;0.88;;;11.50;99.90;;;;;;5097374;28;20499;-65
2021/05/04 11:23:06;;;;;;;3.55;0.50;;;11.50;99.90;;;;;;5095468;28;20036;-66
2021/05/04 11:25:33;;;;;;;3.38;0.60;;;11.60;99.90;;;;;;5097560;28;20028;-66
2021/05/04 11:27:59;;;;;;;1.85;0.40;;;11.50;99.90;;;;;;5095094;28;20101;-65
2021/05/04 11:30:42;;;;;;;3.22;0.60;;;11.70;99.90;;;;;;5097864;28;20056;-65
2021/05/04 11:33:26;;;;;;;7.40;1.35;;;11.80;99.90;;;;;;5096342;28;20077;-65
2021/05/04 11:35:53;;;;;;;5.18;0.50;;;12.00;99.90;;;;;;5094088;28;20066;-65
2021/05/04 11:38:20;;;;;;;11.95;0.93;;;12.10;99.90;;;;;;5101321;27;20028;-65
2021/05/04 11:40:46;;;;;;;6.00;0.57;;;12.10;99.90;;;;;;5095423;28;20123;-65
2021/05/04 11:43:19;;;;;;;6.45;0.65;;;12.20;99.90;;;;;;5096518;28;20571;-65
2021/05/04 11:45:45;;;;;;;4.82;0.77;;;12.30;99.90;;;;;;5094869;28;20054;-65
2021/05/04 11:48:11;;;;;;;5.93;0.82;;;12.50;99.90;;;;;;5103361;28;20508;-65
2021/05/04 11:50:41;;;;;;;6.63;0.40;;;12.50;99.90;;;;;;5096081;28;20035;-65
2021/05/04 11:53:15;;;;;;;10.70;0.82;;;12.50;99.90;;;;;;5096767;28;20119;-65
2021/05/04 11:55:56;;;;;;;7.00;0.50;;;12.50;99.90;;;;;;5095158;28;20055;-65
2021/05/04 11:58:23;;;;;;;2.80;0.55;;;12.50;99.90;;;;;;5097150;28;20085;-65
2021/05/04 12:01:04;;;;;;;8.07;1.08;;;12.40;99.90;;;;;;5094643;28;20469;-65
2021/05/04 12:03:31;;;;;;;2.20;0.45;;;12.30;99.90;;;;;;5094751;28;20453;-65
2021/05/04 12:05:59;;;;;;;3.17;0.77;;;12.10;99.90;;;;;;5096784;28;20035;-65
2021/05/04 12:08:25;;;;;;;4.65;0.55;;;11.90;99.90;;;;;;5094046;28;20047;-65
2021/05/04 12:10:52;;;;;;;3.90;0.38;;;11.80;99.90;;;;;;5100018;28;20382;-65
2021/05/04 12:13:19;;;;;;;4.47;0.40;;;11.70;99.90;;;;;;5094786;28;20024;-66
2021/05/04 12:15:47;;;;;;;5.55;0.50;;;11.60;99.90;;;;;;5096887;28;20034;-65
2021/05/04 12:18:17;;;;;;;7.15;0.68;;;11.60;99.90;;;;;;5095123;28;20039;-65
2021/05/04 12:20:52;;;;;;;5.38;0.75;;;11.50;99.90;;;;;;5097465;28;20034;-65
2021/05/04 12:23:31;;;;;;;5.65;0.50;;;11.50;99.90;;;;;;5094815;28;20069;-65
2021/05/04 12:26:05;;;;;;;6.63;0.40;;;11.40;99.90;;;;;;5096635;28;20039;-65
2021/05/04 12:28:43;;;;;;;3.75;0.43;;;11.40;99.90;;;;;;5098243;27;20115;-64
2021/05/04 12:31:14;;;;;;;1.83;0.43;;;11.40;99.90;;;;;;5097247;28;20519;-64
2021/05/04 12:33:43;;;;;;;2.13;0.40;;;11.40;99.90;;;;;;5099629;28;20085;-64
2021/05/04 12:36:12;;;;;;;2.00;0.20;;;10.90;99.90;;;;;;5100151;27;20032;-64
2021/05/04 12:38:56;;;;;;;1.65;0.28;;;10.40;99.90;;;;;;5101680;27;20079;-64
2021/05/04 12:41:31;;;;;;;4.63;0.60;;;10.10;99.90;;;;;;5097183;27;20109;-65
2021/05/04 12:44:07;;;;;;;3.65;0.50;;;10.10;99.90;;;;;;5103319;27;20032;-64
2021/05/04 12:46:33;;;;;;;6.45;0.65;;;10.20;99.90;;;;;;5112514;27;20179;-64
2021/05/04 12:49:03;;;;;;;8.10;1.50;;;10.50;99.90;;;;;;5093325;28;20463;-65
2021/05/04 12:51:33;;;;;;;6.80;0.70;;;10.70;99.90;;;;;;5087774;28;20032;-65
2021/05/04 12:54:11;;;;;;;;;;;10.90;99.90;;;;;;5097847;28;20137;-64